Time;durP1;ratioP1;P1;durP2;ratioP2;P2;SDS_P1;SDS_P2;PMS_P1;PMS_P2;Temp;Humidity;BMP_temperature;BMP_pressure;BME280_temperature;BME280_humidity;BME280_pressure;Samples;Min_cycle;Max_cycle;Signal;HPM_P1;HPM_P2
2021/12/12 00:02:20;;;;;;;24.13;11.15;;;10.40;99.90;;;;;;5040705;28;20392;-72
2021/12/12 00:04:48;;;;;;;26.45;11.35;;;10.40;99.90;;;;;;5040747;28;20036;-72
2021/12/12 00:07:20;;;;;;;26.73;11.52;;;10.30;99.90;;;;;;5040783;28;20097;-72
2021/12/12 00:09:48;;;;;;;;;;;10.30;99.90;;;;;;5039493;28;20025;-73
2021/12/12 00:12:20;;;;;;;31.25;12.65;;;10.40;99.90;;;;;;5040730;28;19912;-72
2021/12/12 00:14:46;;;;;;;29.02;11.85;;;10.30;99.90;;;;;;5026383;28;20023;-72
2021/12/12 00:17:12;;;;;;;29.75;13.82;;;10.30;99.90;;;;;;5040175;28;20025;-72
2021/12/12 00:19:39;;;;;;;30.05;14.02;;;10.40;99.90;;;;;;5040604;28;20047;-72
2021/12/12 00:22:12;;;;;;;30.67;13.98;;;10.40;99.90;;;;;;5040400;28;20029;-72
2021/12/12 00:24:39;;;;;;;29.45;13.40;;;10.40;99.90;;;;;;5040358;28;20112;-73
2021/12/12 00:27:05;;;;;;;30.60;14.27;;;10.40;99.90;;;;;;5040279;28;20484;-72
2021/12/12 00:29:32;;;;;;;28.45;13.95;;;10.40;99.90;;;;;;5040448;28;20556;-72
2021/12/12 00:32:02;;;;;;;32.10;13.70;;;10.40;99.90;;;;;;5039870;28;20092;-73
2021/12/12 00:34:30;;;;;;;29.58;13.90;;;10.30;99.90;;;;;;5040679;28;20017;-73
2021/12/12 00:36:57;;;;;;;32.80;14.73;;;10.30;99.90;;;;;;5040149;28;20029;-73
2021/12/12 00:39:27;;;;;;;27.98;13.20;;;10.30;99.90;;;;;;5038651;28;20056;-71
2021/12/12 00:42:08;;;;;;;27.95;12.48;;;10.40;99.90;;;;;;5040036;28;20430;-72
2021/12/12 00:44:38;;;;;;;28.95;12.50;;;10.40;99.90;;;;;;5038117;28;20541;-72
2021/12/12 00:47:07;;;;;;;26.38;11.50;;;10.50;99.90;;;;;;5022140;28;20018;-71
2021/12/12 00:49:35;;;;;;;26.67;11.00;;;10.50;99.90;;;;;;5032257;28;20104;-72
2021/12/12 00:52:03;;;;;;;23.27;10.95;;;10.60;99.90;;;;;;5039715;28;20095;-73
2021/12/12 00:54:31;;;;;;;21.60;10.35;;;10.60;99.90;;;;;;5038531;28;20079;-72
2021/12/12 00:57:07;;;;;;;19.75;10.13;;;10.60;99.90;;;;;;5039736;28;20063;-73
2021/12/12 00:59:33;;;;;;;21.45;10.30;;;10.60;99.90;;;;;;5039880;28;20029;-73
2021/12/12 01:02:02;;;;;;;25.27;10.50;;;10.70;99.90;;;;;;5039516;28;20057;-73
2021/12/12 01:04:36;;;;;;;20.58;8.30;;;10.70;99.90;;;;;;5038364;28;20420;-72
2021/12/12 01:07:07;;;;;;;18.85;8.10;;;10.80;99.90;;;;;;5038384;28;20568;-73
2021/12/12 01:09:38;;;;;;;22.90;10.57;;;10.80;99.90;;;;;;5039450;28;20025;-72
2021/12/12 01:12:08;;;;;;;23.58;7.72;;;10.80;99.90;;;;;;5038198;28;20024;-73
2021/12/12 01:14:41;;;;;;;22.13;9.10;;;10.80;99.90;;;;;;5039446;28;20018;-72
2021/12/12 01:17:10;;;;;;;;;;;10.80;99.90;;;;;;5032938;28;20098;-72
2021/12/12 01:19:44;;;;;;;18.85;7.03;;;10.80;99.90;;;;;;5039181;28;19912;-73
2021/12/12 01:22:25;;;;;;;20.10;9.15;;;10.80;99.90;;;;;;5039221;28;20032;-73
2021/12/12 01:24:52;;;;;;;20.55;8.43;;;10.90;99.90;;;;;;5039108;28;20025;-73
2021/12/12 01:27:19;;;;;;;16.30;7.50;;;10.90;99.90;;;;;;5039187;28;20021;-72
2021/12/12 01:29:46;;;;;;;17.58;7.97;;;10.90;99.90;;;;;;5039226;28;20104;-73
2021/12/12 01:32:23;;;;;;;20.70;8.18;;;10.90;99.90;;;;;;5038647;28;20420;-72
2021/12/12 01:34:51;;;;;;;13.30;6.72;;;10.90;99.90;;;;;;5039331;28;20017;-72
2021/12/12 01:40:14;;;;;;;19.05;9.20;;;10.90;99.90;;;;;;5038814;28;20419;-73
2021/12/12 01:42:44;;;;;;;21.20;8.20;;;10.90;99.90;;;;;;5039229;28;20080;-72
2021/12/12 01:45:16;;;;;;;16.40;7.57;;;10.90;99.90;;;;;;5036187;28;20049;-73
2021/12/12 01:48:06;;;;;;;16.15;6.85;;;11.00;99.90;;;;;;5028902;28;20022;-72
2021/12/12 01:50:36;;;;;;;14.65;6.88;;;11.00;99.90;;;;;;5038601;28;20022;-72
2021/12/12 01:53:05;;;;;;;14.18;6.50;;;10.90;99.90;;;;;;5038691;28;20030;-73
2021/12/12 01:55:39;;;;;;;15.30;7.00;;;11.00;99.90;;;;;;5038919;28;20053;-72
2021/12/12 01:58:14;;;;;;;17.42;7.88;;;11.00;99.90;;;;;;5038587;28;20022;-72
2021/12/12 02:00:57;;;;;;;20.73;7.45;;;11.00;99.90;;;;;;5038646;28;20022;-72
2021/12/12 02:03:27;;;;;;;21.15;7.78;;;11.00;99.80;;;;;;5037942;28;20463;-72
2021/12/12 02:05:54;;;;;;;13.35;6.97;;;10.90;99.90;;;;;;5038545;28;20037;-73
2021/12/12 02:08:20;;;;;;;14.40;6.93;;;10.90;99.90;;;;;;5025490;28;20025;-72
2021/12/12 02:10:53;;;;;;;20.52;6.97;;;10.90;99.90;;;;;;5038199;28;20033;-73
2021/12/12 02:13:22;;;;;;;15.95;6.47;;;10.90;99.90;;;;;;5038502;28;20110;-72
2021/12/12 02:15:51;;;;;;;16.20;6.35;;;10.90;99.90;;;;;;5036928;28;20607;-72
2021/12/12 02:18:25;;;;;;;14.27;5.72;;;10.90;99.90;;;;;;5032115;28;20083;-72
2021/12/12 02:21:07;;;;;;;14.35;5.93;;;10.90;99.90;;;;;;5038136;28;20022;-73
2021/12/12 02:37:26;;;;;;;16.10;6.57;;;11.00;99.90;;;;;;5025189;28;20048;-72
2021/12/12 02:39:53;;;;;;;15.10;6.50;;;11.00;99.90;;;;;;5037519;28;20081;-72
2021/12/12 02:42:22;;;;;;;19.23;6.78;;;11.10;99.90;;;;;;5037841;28;20033;-73
2021/12/12 02:44:51;;;;;;;19.95;7.30;;;11.10;99.90;;;;;;5037321;28;20448;-72
2021/12/12 02:47:20;;;;;;;13.20;6.35;;;11.10;99.90;;;;;;5031143;28;20064;-72
2021/12/12 02:52:19;;;;;;;14.73;7.43;;;11.10;99.90;;;;;;5037628;28;20075;-72
2021/12/12 02:54:45;;;;;;;19.60;8.07;;;11.10;99.90;;;;;;5037412;28;20025;-72
2021/12/12 02:57:13;;;;;;;22.10;7.75;;;11.20;99.90;;;;;;5037655;28;20104;-72
2021/12/12 02:59:42;;;;;;;20.80;8.18;;;11.20;99.90;;;;;;5037426;28;20792;-73
2021/12/12 03:02:14;;;;;;;18.73;7.60;;;11.20;99.90;;;;;;5037371;28;20021;-72
2021/12/12 03:04:41;;;;;;;17.40;6.50;;;11.10;99.90;;;;;;5036149;28;20017;-72
2021/12/12 03:07:09;;;;;;;18.60;7.72;;;11.20;99.90;;;;;;5037697;28;20061;-72
2021/12/12 03:09:39;;;;;;;25.92;7.75;;;11.20;99.90;;;;;;5037140;28;20032;-72
2021/12/12 03:12:10;;;;;;;19.27;7.88;;;11.20;99.90;;;;;;5036141;28;20108;-72
2021/12/12 03:14:37;;;;;;;19.15;8.10;;;11.20;99.90;;;;;;5036162;28;20014;-73
2021/12/12 03:17:08;;;;;;;16.45;6.93;;;11.20;99.90;;;;;;5032327;28;20029;-73
2021/12/12 03:19:35;;;;;;;18.27;7.43;;;11.20;99.90;;;;;;5037234;28;20075;-72
2021/12/12 03:22:01;;;;;;;19.98;8.38;;;11.20;99.90;;;;;;5037234;28;20033;-72
2021/12/12 03:24:27;;;;;;;19.02;7.45;;;11.20;99.90;;;;;;5035788;28;20032;-72
2021/12/12 03:27:00;;;;;;;19.35;8.40;;;11.20;99.90;;;;;;5037186;28;20028;-73
2021/12/12 03:29:28;;;;;;;16.60;8.02;;;11.20;99.90;;;;;;5037562;28;20022;-72
2021/12/12 03:32:02;;;;;;;18.77;7.75;;;11.20;99.90;;;;;;5036938;28;20022;-73
2021/12/12 03:34:32;;;;;;;17.88;7.68;;;11.20;99.90;;;;;;5037360;28;20022;-73
2021/12/12 03:36:59;;;;;;;16.05;7.47;;;11.20;99.90;;;;;;5016092;28;20030;-72
2021/12/12 03:39:29;;;;;;;18.38;7.82;;;11.20;99.90;;;;;;5035578;28;20046;-72
2021/12/12 03:41:58;;;;;;;20.63;7.57;;;11.20;99.90;;;;;;5037004;28;20024;-72
2021/12/12 03:44:29;;;;;;;22.15;7.90;;;11.30;99.90;;;;;;5036643;28;20022;-72
2021/12/12 03:46:59;;;;;;;14.48;6.97;;;11.30;99.90;;;;;;5032237;28;20022;-73
2021/12/12 03:49:25;;;;;;;19.20;6.95;;;11.20;99.90;;;;;;5028729;28;20041;-73
2021/12/12 03:51:51;;;;;;;17.67;6.07;;;11.20;99.90;;;;;;5036999;28;20025;-73
2021/12/12 03:54:18;;;;;;;13.73;5.28;;;11.20;99.90;;;;;;5037016;28;20388;-73
2021/12/12 03:56:45;;;;;;;14.02;5.63;;;11.20;99.90;;;;;;5035635;28;20025;-73
2021/12/12 03:59:13;;;;;;;15.25;5.07;;;11.20;99.90;;;;;;5037147;28;20022;-73
2021/12/12 04:01:43;;;;;;;15.02;4.90;;;11.20;99.90;;;;;;5036571;28;20036;-73
2021/12/12 04:04:22;;;;;;;15.13;4.63;;;11.20;99.90;;;;;;5035702;28;20092;-73
2021/12/12 04:06:51;;;;;;;15.95;4.30;;;11.20;99.90;;;;;;5024425;28;20026;-73
2021/12/12 04:09:18;;;;;;;12.27;4.40;;;11.30;99.90;;;;;;5036623;28;20021;-73
2021/12/12 04:11:48;;;;;;;14.52;3.47;;;11.30;99.90;;;;;;5037007;28;20056;-72
2021/12/12 04:14:14;;;;;;;14.07;3.58;;;11.40;99.90;;;;;;5036779;28;20096;-72
2021/12/12 04:16:44;;;;;;;8.88;3.20;;;11.40;99.90;;;;;;5033573;28;20022;-73
2021/12/12 04:19:11;;;;;;;14.30;2.95;;;11.40;99.90;;;;;;5031586;28;20030;-72
2021/12/12 04:21:38;;;;;;;9.70;3.20;;;11.40;99.90;;;;;;5035632;28;20029;-73
2021/12/12 04:24:04;;;;;;;17.67;3.60;;;11.40;99.90;;;;;;5036441;28;20017;-73
2021/12/12 04:26:32;;;;;;;13.45;3.55;;;11.50;99.90;;;;;;5040546;28;20025;-72
2021/12/12 04:29:09;;;;;;;14.00;3.75;;;11.50;99.90;;;;;;5040315;28;20021;-73
2021/12/12 04:31:41;;;;;;;15.25;3.22;;;11.50;99.90;;;;;;5040108;28;20074;-72
2021/12/12 04:34:08;;;;;;;12.68;3.35;;;11.50;99.90;;;;;;5039787;28;20022;-73
2021/12/12 04:36:38;;;;;;;18.58;3.70;;;11.50;99.90;;;;;;5040332;28;20491;-72
2021/12/12 04:39:33;;;;;;;12.85;3.25;;;11.50;99.90;;;;;;5027664;28;20017;-72
2021/12/12 04:42:06;;;;;;;18.73;3.40;;;11.50;99.90;;;;;;5039515;28;20037;-72
2021/12/12 04:44:37;;;;;;;10.65;3.63;;;11.50;99.90;;;;;;5036847;28;20397;-72
2021/12/12 04:50:20;;;;;;;21.65;3.40;;;11.40;99.90;;;;;;5038128;28;20036;-72
2021/12/12 04:52:52;;;;;;;;;;;11.40;99.90;;;;;;5040327;28;20030;-72
2021/12/12 04:55:29;;;;;;;9.30;3.03;;;11.30;99.90;;;;;;5039736;28;19909;-73
2021/12/12 04:58:14;;;;;;;8.35;2.92;;;11.30;99.90;;;;;;5039769;28;20324;-72
2021/12/12 05:00:59;;;;;;;9.68;3.10;;;11.20;99.90;;;;;;5039893;28;20550;-72
2021/12/12 05:03:54;;;;;;;11.50;3.28;;;11.20;99.90;;;;;;5039537;28;20087;-73
2021/12/12 05:06:29;;;;;;;6.00;2.50;;;11.10;99.90;;;;;;5039565;28;20030;-72
2021/12/12 05:09:06;;;;;;;10.57;2.70;;;11.00;99.90;;;;;;5039629;28;20100;-73
2021/12/12 05:12:00;;;;;;;7.75;2.83;;;10.90;99.90;;;;;;5026467;28;20480;-73
2021/12/12 05:14:33;;;;;;;9.93;3.53;;;10.80;99.90;;;;;;5039460;28;20021;-72
2021/12/12 05:17:32;;;;;;;10.38;2.90;;;10.80;99.90;;;;;;5039247;28;20501;-73
2021/12/12 05:20:01;;;;;;;6.55;2.47;;;10.70;99.90;;;;;;5029074;28;20057;-73
2021/12/12 05:22:36;;;;;;;6.20;2.88;;;10.60;99.90;;;;;;5037969;28;20030;-73
2021/12/12 05:25:09;;;;;;;7.53;2.50;;;10.50;99.80;;;;;;5039190;28;20025;-72
2021/12/12 05:27:38;;;;;;;7.00;2.72;;;10.40;99.30;;;;;;5039195;28;20104;-72
2021/12/12 05:30:11;;;;;;;4.88;2.80;;;10.40;99.20;;;;;;5038072;28;20049;-72
2021/12/12 05:32:37;;;;;;;8.73;3.55;;;10.30;99.10;;;;;;5027051;28;20025;-72
2021/12/12 05:35:07;;;;;;;9.35;3.00;;;10.30;99.00;;;;;;5037767;28;20028;-73
2021/12/12 05:37:33;;;;;;;8.93;3.40;;;10.20;98.90;;;;;;5038122;28;20491;-73
2021/12/12 05:40:02;;;;;;;7.70;3.50;;;10.10;98.80;;;;;;5038814;28;20053;-72
2021/12/12 05:42:29;;;;;;;6.43;3.15;;;10.10;98.80;;;;;;5038988;28;20041;-72
2021/12/12 05:44:55;;;;;;;7.32;3.80;;;10.10;98.60;;;;;;5034659;28;20076;-72
2021/12/12 05:47:22;;;;;;;8.20;3.33;;;10.10;98.60;;;;;;5038527;28;20033;-73
2021/12/12 05:49:48;;;;;;;8.45;3.55;;;10.10;98.60;;;;;;5037046;28;20033;-72
2021/12/12 05:52:19;;;;;;;7.47;3.88;;;10.10;98.50;;;;;;5038823;28;20115;-72
2021/12/12 05:54:47;;;;;;;7.45;3.83;;;10.00;98.40;;;;;;5038703;28;20017;-72
2021/12/12 05:57:17;;;;;;;11.52;4.40;;;10.00;98.30;;;;;;5038830;28;20033;-73
2021/12/12 05:59:43;;;;;;;7.68;4.32;;;10.00;98.30;;;;;;5037285;28;20075;-72
2021/12/12 06:02:11;;;;;;;10.35;5.13;;;10.00;98.20;;;;;;5038440;28;20538;-72
2021/12/12 06:04:38;;;;;;;11.35;5.82;;;10.00;98.20;;;;;;5038498;28;20515;-72
2021/12/12 06:07:08;;;;;;;13.98;7.47;;;10.00;98.20;;;;;;5038787;28;20030;-72
2021/12/12 06:09:35;;;;;;;15.90;8.25;;;10.00;98.10;;;;;;5036873;28;20017;-73
2021/12/12 06:12:03;;;;;;;15.55;9.02;;;10.00;98.20;;;;;;5038430;28;20415;-72
2021/12/12 06:14:31;;;;;;;19.98;10.35;;;10.00;98.10;;;;;;5038296;28;20022;-73
2021/12/12 06:17:00;;;;;;;16.75;9.63;;;10.00;98.10;;;;;;5038178;28;20029;-72
2021/12/12 06:19:30;;;;;;;16.85;10.80;;;10.10;98.10;;;;;;5038226;28;20571;-72
2021/12/12 06:21:58;;;;;;;20.05;11.27;;;10.10;98.10;;;;;;5038444;28;20032;-73
2021/12/12 06:24:26;;;;;;;18.55;11.48;;;10.10;98.00;;;;;;5037897;28;20169;-73
2021/12/12 06:26:53;;;;;;;19.02;10.68;;;10.10;98.00;;;;;;5038275;28;20472;-72
2021/12/12 06:29:19;;;;;;;21.55;11.35;;;10.10;98.00;;;;;;5038107;28;20159;-73
2021/12/12 06:31:48;;;;;;;19.88;10.23;;;10.10;98.00;;;;;;5036440;28;20057;-72
2021/12/12 06:34:14;;;;;;;17.35;10.65;;;10.10;98.00;;;;;;5036875;28;20105;-73
2021/12/12 06:36:42;;;;;;;16.05;9.75;;;10.10;98.00;;;;;;5038342;28;20022;-73
2021/12/12 06:39:10;;;;;;;15.50;9.13;;;10.20;98.00;;;;;;5037726;28;20036;-73
2021/12/12 06:41:36;;;;;;;16.92;9.90;;;10.10;97.90;;;;;;5037857;28;20037;-73
2021/12/12 06:44:04;;;;;;;17.27;10.43;;;10.20;98.00;;;;;;5037887;28;20057;-72
2021/12/12 06:46:30;;;;;;;15.73;10.02;;;10.20;98.00;;;;;;5034923;28;20033;-72
2021/12/12 06:48:58;;;;;;;15.90;10.63;;;10.20;98.00;;;;;;5025405;28;20053;-73
2021/12/12 06:51:26;;;;;;;20.00;11.55;;;10.20;98.00;;;;;;5037710;28;20056;-73
2021/12/12 06:53:52;;;;;;;16.92;10.88;;;10.20;98.00;;;;;;5037596;28;20472;-72
2021/12/12 06:56:19;;;;;;;13.23;8.05;;;10.20;98.10;;;;;;5037687;28;20010;-72
2021/12/12 06:58:48;;;;;;;12.48;7.55;;;10.20;98.20;;;;;;5037684;28;20022;-73
2021/12/12 07:01:19;;;;;;;11.10;4.65;;;10.30;98.50;;;;;;5037336;28;20067;-73
2021/12/12 07:03:46;;;;;;;9.25;3.88;;;10.30;98.60;;;;;;5037670;28;20025;-73
2021/12/12 07:06:13;;;;;;;14.45;4.13;;;10.30;98.70;;;;;;5037392;28;20037;-73
2021/12/12 07:08:39;;;;;;;13.00;4.13;;;10.40;98.80;;;;;;5037504;28;20021;-73
2021/12/12 07:11:06;;;;;;;12.88;4.05;;;10.40;98.90;;;;;;5037287;28;20029;-72
2021/12/12 07:13:32;;;;;;;22.92;4.53;;;10.40;99.10;;;;;;5037510;28;20025;-73
2021/12/12 07:16:02;;;;;;;10.93;3.35;;;10.50;99.50;;;;;;5037026;28;20456;-73
2021/12/12 07:18:30;;;;;;;11.13;3.53;;;10.50;99.70;;;;;;5037500;28;20120;-73
2021/12/12 07:21:03;;;;;;;11.98;4.50;;;10.60;99.80;;;;;;5035982;28;20032;-73
2021/12/12 07:23:29;;;;;;;11.95;3.25;;;10.60;99.90;;;;;;5037238;28;20112;-73
2021/12/12 07:25:59;;;;;;;15.32;4.15;;;10.70;99.90;;;;;;5037051;28;20033;-73
2021/12/12 07:28:26;;;;;;;11.27;4.82;;;10.70;99.90;;;;;;5037362;28;20518;-73
2021/12/12 07:30:52;;;;;;;16.05;4.75;;;10.70;99.90;;;;;;5037017;28;20108;-73
2021/12/12 07:33:19;;;;;;;13.20;5.80;;;10.70;99.90;;;;;;5037212;28;20029;-73
2021/12/12 07:35:46;;;;;;;16.38;5.05;;;10.80;99.90;;;;;;5024238;28;20057;-73
2021/12/12 07:38:15;;;;;;;22.75;7.85;;;10.80;99.90;;;;;;5037210;28;20025;-73
2021/12/12 07:40:43;;;;;;;32.50;12.70;;;10.80;99.90;;;;;;5036824;28;20053;-72
2021/12/12 07:43:10;;;;;;;22.00;7.68;;;10.90;99.90;;;;;;5037070;28;20068;-73
2021/12/12 07:45:37;;;;;;;21.02;8.30;;;10.80;99.90;;;;;;5033378;28;20060;-73
2021/12/12 07:48:06;;;;;;;16.88;7.25;;;10.90;99.90;;;;;;5035568;28;20025;-73
2021/12/12 07:50:32;;;;;;;15.32;6.50;;;10.80;99.90;;;;;;5035540;28;20485;-73
2021/12/12 07:52:58;;;;;;;13.65;5.00;;;10.90;99.90;;;;;;5036957;28;20048;-73
2021/12/12 07:55:25;;;;;;;15.55;5.20;;;10.90;99.90;;;;;;5037248;28;20408;-73
2021/12/12 07:57:51;;;;;;;20.70;5.88;;;10.90;99.90;;;;;;5037049;28;20017;-73
2021/12/12 08:00:22;;;;;;;18.75;6.88;;;11.00;99.90;;;;;;5039030;28;20018;-72
2021/12/12 08:02:50;;;;;;;18.15;6.88;;;11.00;99.90;;;;;;5040561;28;20033;-72
2021/12/12 08:05:18;;;;;;;20.08;7.03;;;10.90;99.90;;;;;;5041149;28;20088;-73
2021/12/12 08:07:44;;;;;;;19.45;6.97;;;11.00;99.90;;;;;;5040707;28;20478;-72
2021/12/12 08:10:15;;;;;;;33.13;10.73;;;11.00;99.90;;;;;;5040622;28;20029;-72
2021/12/12 08:12:42;;;;;;;23.48;8.18;;;11.00;99.90;;;;;;5040917;28;20101;-73
2021/12/12 08:15:10;;;;;;;18.42;7.75;;;11.00;99.90;;;;;;5040857;28;20017;-72
2021/12/12 08:17:37;;;;;;;22.60;8.48;;;11.00;99.90;;;;;;5040210;28;20021;-73
2021/12/12 08:20:05;;;;;;;41.92;22.30;;;11.00;99.90;;;;;;5040766;28;20095;-72
2021/12/12 08:22:31;;;;;;;36.55;17.05;;;11.10;99.90;;;;;;5040549;28;20024;-73
2021/12/12 08:24:59;;;;;;;34.70;16.67;;;11.10;99.90;;;;;;5040508;28;20037;-72
2021/12/12 08:27:26;;;;;;;35.83;15.23;;;11.10;99.90;;;;;;5040306;28;20037;-73
2021/12/12 08:29:52;;;;;;;33.33;16.45;;;11.10;99.90;;;;;;5040346;28;20022;-73
2021/12/12 08:32:18;;;;;;;68.18;31.63;;;11.10;99.90;;;;;;5039865;28;20071;-73
2021/12/12 08:34:46;;;;;;;42.65;20.08;;;11.10;99.90;;;;;;5040354;28;20018;-73
2021/12/12 08:37:11;;;;;;;34.30;14.02;;;11.10;99.90;;;;;;5040117;28;20025;-73
2021/12/12 08:39:37;;;;;;;33.08;18.60;;;11.20;99.90;;;;;;5040170;28;20412;-73
2021/12/12 08:42:06;;;;;;;42.75;21.30;;;11.20;99.90;;;;;;5039932;28;20491;-75
2021/12/12 08:44:36;;;;;;;35.75;17.23;;;11.20;99.90;;;;;;5038574;28;20025;-77
2021/12/12 08:47:04;;;;;;;34.05;17.35;;;11.20;99.90;;;;;;5026733;28;20029;-78
2021/12/12 08:49:32;;;;;;;30.65;16.25;;;11.20;99.90;;;;;;5038303;28;20109;-80
2021/12/12 08:52:08;;;;;;;29.75;15.75;;;11.30;99.90;;;;;;5039786;28;20076;-78
2021/12/12 08:54:36;;;;;;;30.73;17.70;;;11.30;99.90;;;;;;5039026;28;20026;-79
2021/12/12 08:57:12;;;;;;;28.55;14.07;;;11.30;99.90;;;;;;5026836;28;20032;-79
2021/12/12 08:59:45;;;;;;;29.25;11.45;;;11.30;99.90;;;;;;5039879;28;20037;-80
2021/12/12 09:02:13;;;;;;;23.80;10.85;;;11.40;99.90;;;;;;5038452;28;20492;-77
2021/12/12 09:04:45;;;;;;;22.92;12.93;;;11.40;99.90;;;;;;5039611;28;20103;-80
2021/12/12 09:07:20;;;;;;;31.38;13.05;;;11.40;99.90;;;;;;5038421;28;20439;-77
2021/12/12 09:10:00;;;;;;;31.30;10.27;;;11.40;99.90;;;;;;5037934;28;20511;-78
2021/12/12 09:12:32;;;;;;;28.25;13.50;;;11.40;99.90;;;;;;5039304;28;20071;-76
2021/12/12 09:15:07;;;;;;;26.85;12.35;;;11.40;99.90;;;;;;5038222;28;20025;-79
2021/12/12 09:17:50;;;;;;;27.15;12.07;;;11.50;99.90;;;;;;5039383;28;20056;-75
2021/12/12 09:20:19;;;;;;;29.73;13.07;;;11.50;99.90;;;;;;5039533;28;20025;-77
2021/12/12 09:23:01;;;;;;;27.77;12.32;;;11.50;99.90;;;;;;5039134;28;20021;-78
2021/12/12 09:25:36;;;;;;;20.33;9.65;;;11.50;99.90;;;;;;5038951;28;20504;-75
2021/12/12 09:28:27;;;;;;;18.75;7.90;;;11.50;99.90;;;;;;5039270;28;20100;-76
2021/12/12 09:30:57;;;;;;;22.42;8.02;;;11.60;99.90;;;;;;5038834;28;20033;-75
2021/12/12 09:33:38;;;;;;;21.13;7.50;;;11.60;99.90;;;;;;5039110;28;20374;-76
2021/12/12 09:36:16;;;;;;;26.70;7.35;;;11.60;99.90;;;;;;5039543;28;20081;-75
2021/12/12 09:38:51;;;;;;;24.85;7.95;;;11.60;99.90;;;;;;5037805;28;20021;-77
2021/12/12 09:41:45;;;;;;;26.15;9.77;;;11.60;99.90;;;;;;5037485;28;20057;-80
2021/12/12 09:44:37;;;;;;;302.73;113.22;;;11.70;99.90;;;;;;5027373;28;20026;-80
2021/12/12 09:47:27;;;;;;;129.00;55.55;;;11.70;99.90;;;;;;5038122;28;20049;-79
2021/12/12 09:53:28;;;;;;;145.32;61.35;;;11.70;99.90;;;;;;5038947;28;20048;-80
2021/12/12 09:56:06;;;;;;;98.97;42.00;;;11.80;99.90;;;;;;5038811;28;20024;-80
2021/12/12 09:58:55;;;;;;;68.03;31.70;;;11.80;99.90;;;;;;5038583;28;20025;-80
2021/12/12 10:01:46;;;;;;;44.17;20.88;;;11.80;99.90;;;;;;5038562;28;20040;-82
2021/12/12 10:04:26;;;;;;;41.28;20.08;;;11.80;99.90;;;;;;5038626;28;20060;-74
2021/12/12 10:06:52;;;;;;;34.67;18.20;;;11.90;99.90;;;;;;5027222;28;20013;-77
2021/12/12 10:09:34;;;;;;;26.30;12.55;;;11.90;99.90;;;;;;5038201;28;20030;-80
2021/12/12 10:12:02;;;;;;;77.65;40.65;;;11.90;99.90;;;;;;5037360;28;20099;-75
2021/12/12 10:14:49;;;;;;;48.60;25.52;;;11.90;99.90;;;;;;5038311;28;20030;-75
2021/12/12 10:17:27;;;;;;;71.28;36.75;;;11.90;99.90;;;;;;5038114;28;20092;-76
2021/12/12 10:20:02;;;;;;;75.10;35.35;;;12.00;99.90;;;;;;5038383;28;20029;-73
2021/12/12 10:22:28;;;;;;;49.10;23.02;;;12.00;99.90;;;;;;5037531;28;20025;-77
2021/12/12 10:25:13;;;;;;;76.55;37.10;;;12.00;99.90;;;;;;5038077;28;20032;-78
2021/12/12 10:28:14;;;;;;;73.60;32.50;;;12.10;99.90;;;;;;5033156;28;20026;-78
2021/12/12 10:30:47;;;;;;;71.18;30.92;;;12.10;99.90;;;;;;5037120;28;20092;-77
2021/12/12 10:33:26;;;;;;;66.18;33.05;;;12.10;99.90;;;;;;5036835;28;20026;-77
2021/12/12 10:36:00;;;;;;;87.30;41.22;;;12.10;99.90;;;;;;5026133;28;20436;-78
2021/12/12 10:38:54;;;;;;;63.95;31.10;;;12.10;99.90;;;;;;5037374;28;20025;-78
2021/12/12 10:41:26;;;;;;;46.75;25.33;;;12.20;99.90;;;;;;5035639;28;20132;-77
2021/12/12 10:44:12;;;;;;;30.17;17.20;;;12.20;99.80;;;;;;5025231;28;20116;-77
2021/12/12 10:46:51;;;;;;;47.85;24.00;;;12.20;99.70;;;;;;5037415;28;20056;-77
2021/12/12 10:49:27;;;;;;;66.97;32.10;;;12.20;99.70;;;;;;5036272;28;20056;-77
2021/12/12 10:52:04;;;;;;;48.03;24.77;;;12.20;99.50;;;;;;5037657;28;20032;-77
2021/12/12 10:54:39;;;;;;;50.67;23.23;;;12.20;99.40;;;;;;5037568;28;20108;-77
2021/12/12 10:57:11;;;;;;;40.95;18.38;;;12.20;99.30;;;;;;5025455;28;20014;-77
2021/12/12 10:59:45;;;;;;;35.25;14.63;;;12.30;99.30;;;;;;5037576;28;20029;-77
2021/12/12 11:02:17;;;;;;;80.45;34.33;;;12.30;99.10;;;;;;5037349;28;20018;-77
2021/12/12 11:04:55;;;;;;;161.60;61.42;;;12.30;99.00;;;;;;5037405;28;20072;-77
2021/12/12 11:07:29;;;;;;;180.25;74.05;;;12.30;99.00;;;;;;5037503;28;20021;-78
2021/12/12 11:10:17;;;;;;;186.45;87.28;;;12.40;99.00;;;;;;5030139;28;20033;-78
2021/12/12 11:13:03;;;;;;;65.00;31.40;;;12.40;98.90;;;;;;5035961;28;20053;-74
2021/12/12 11:15:34;;;;;;;50.08;25.15;;;12.40;98.80;;;;;;5037552;28;20036;-74
2021/12/12 11:18:05;;;;;;;26.95;13.30;;;12.40;98.70;;;;;;5024347;28;20013;-74
2021/12/12 11:20:40;;;;;;;24.13;8.60;;;12.40;98.70;;;;;;5037285;28;20036;-73
2021/12/12 11:23:13;;;;;;;26.60;13.00;;;12.50;98.50;;;;;;5037420;28;20138;-74
2021/12/12 11:25:41;;;;;;;;;;;12.50;98.50;;;;;;5034049;28;20082;-75
2021/12/12 11:28:12;;;;;;;79.32;33.00;;;12.50;98.40;;;;;;5037415;28;19955;-75
2021/12/12 11:30:46;;;;;;;82.75;38.65;;;12.50;98.30;;;;;;5035603;28;20025;-77
2021/12/12 11:33:14;;;;;;;82.47;42.17;;;12.60;98.20;;;;;;5035819;28;20033;-75
2021/12/12 11:35:44;;;;;;;48.95;26.90;;;12.50;98.20;;;;;;5038704;28;20021;-74
2021/12/12 11:38:31;;;;;;;47.40;25.70;;;12.60;98.10;;;;;;5041337;28;20025;-76
2021/12/12 11:41:03;;;;;;;39.28;24.83;;;12.60;98.10;;;;;;5030599;28;20048;-76
2021/12/12 11:43:34;;;;;;;28.63;15.40;;;12.60;98.10;;;;;;5041169;28;20524;-76
2021/12/12 11:46:05;;;;;;;47.55;27.05;;;12.60;98.00;;;;;;5040858;28;20037;-78
2021/12/12 11:48:54;;;;;;;41.78;22.80;;;12.60;98.00;;;;;;5038891;28;20021;-75
2021/12/12 11:51:42;;;;;;;34.90;22.77;;;12.60;97.90;;;;;;5038255;28;20026;-73
2021/12/12 11:54:35;;;;;;;26.83;14.00;;;12.70;97.70;;;;;;5027921;28;20057;-72
2021/12/12 11:57:26;;;;;;;19.42;9.95;;;12.60;97.60;;;;;;5059688;28;20021;-75
2021/12/12 12:00:16;;;;;;;19.63;8.68;;;12.60;97.50;;;;;;5037580;28;20447;-77
2021/12/12 12:02:47;;;;;;;15.90;8.77;;;12.70;97.50;;;;;;5038789;28;20083;-79
2021/12/12 12:05:31;;;;;;;32.17;14.33;;;12.70;97.50;;;;;;5040643;28;20389;-79
2021/12/12 12:08:23;;;;;;;18.13;10.80;;;12.70;97.40;;;;;;5038604;28;20033;-79
2021/12/12 12:11:09;;;;;;;58.80;23.85;;;12.70;97.40;;;;;;5034529;28;20485;-80
2021/12/12 12:14:01;;;;;;;55.10;27.60;;;12.70;97.40;;;;;;5040465;28;20021;-80
2021/12/12 12:16:35;;;;;;;59.35;26.52;;;12.70;97.40;;;;;;5026524;28;20053;-79
2021/12/12 12:19:27;;;;;;;38.13;16.65;;;12.70;97.30;;;;;;5040387;28;20065;-79
2021/12/12 12:22:08;;;;;;;58.63;29.48;;;12.70;97.20;;;;;;5037133;28;20037;-79
2021/12/12 12:24:54;;;;;;;102.50;31.13;;;12.70;97.30;;;;;;5031532;28;20029;-79
2021/12/12 12:27:36;;;;;;;50.38;19.45;;;12.80;97.20;;;;;;5040011;28;20052;-78
2021/12/12 12:30:03;;;;;;;36.28;13.57;;;12.80;97.20;;;;;;5039498;28;20026;-78
2021/12/12 12:33:07;;;;;;;34.92;12.68;;;12.70;97.10;;;;;;5036991;28;20021;-79
2021/12/12 12:36:03;;;;;;;22.10;8.02;;;12.70;97.00;;;;;;5036931;28;20053;-78
2021/12/12 12:38:50;;;;;;;18.20;8.35;;;12.70;97.00;;;;;;5038299;28;20037;-78
2021/12/12 12:41:31;;;;;;;19.00;9.23;;;12.70;96.90;;;;;;5038800;28;20140;-78
2021/12/12 12:44:16;;;;;;;14.55;7.50;;;12.70;96.80;;;;;;5028155;28;20025;-74
2021/12/12 12:47:03;;;;;;;16.00;7.30;;;12.80;96.60;;;;;;5038548;28;20085;-74
2021/12/12 12:50:07;;;;;;;17.48;6.38;;;12.80;96.60;;;;;;5038347;28;20025;-75
2021/12/12 12:52:55;;;;;;;16.75;7.68;;;12.80;96.60;;;;;;5030003;28;20035;-74
2021/12/12 12:55:43;;;;;;;20.17;7.03;;;12.80;96.70;;;;;;5039903;28;20030;-77
2021/12/12 12:58:18;;;;;;;21.20;7.68;;;12.80;96.60;;;;;;5039772;28;20026;-74
2021/12/12 13:00:47;;;;;;;17.05;6.97;;;12.80;96.60;;;;;;5039424;28;20030;-75
2021/12/12 13:03:37;;;;;;;12.40;6.40;;;12.80;96.50;;;;;;5039464;28;20018;-78
2021/12/12 13:06:09;;;;;;;15.55;5.55;;;12.80;96.50;;;;;;5036580;28;20029;-77
2021/12/12 13:08:50;;;;;;;13.25;5.43;;;12.80;96.50;;;;;;5039239;28;20017;-75
2021/12/12 13:11:32;;;;;;;27.17;10.75;;;12.80;96.20;;;;;;5038231;28;20041;-75
2021/12/12 13:14:21;;;;;;;163.48;52.42;;;12.80;96.10;;;;;;5039501;28;20445;-76
2021/12/12 13:16:58;;;;;;;214.05;69.03;;;12.80;96.10;;;;;;5039187;28;20549;-76
2021/12/12 13:19:53;;;;;;;177.48;58.55;;;12.80;96.00;;;;;;5037968;28;20022;-74
2021/12/12 13:22:22;;;;;;;126.25;44.17;;;12.80;96.00;;;;;;5039144;28;20029;-74
2021/12/12 13:25:18;;;;;;;101.47;36.55;;;12.80;96.00;;;;;;5039022;28;20026;-79
2021/12/12 13:28:17;;;;;;;85.35;32.55;;;12.80;96.00;;;;;;5026558;28;20057;-79
2021/12/12 13:31:00;;;;;;;72.05;28.35;;;12.80;95.80;;;;;;5037326;28;20032;-80